sensor_id;sensor_type;location;lat;lon;timestamp;temperature;humidity
8043;DHT22;4064;48.132;11.366;2024-01-27T00:01:39;1.50;99.90
8043;DHT22;4064;48.132;11.366;2024-01-27T00:04:05;1.60;99.90
8043;DHT22;4064;48.132;11.366;2024-01-27T00:06:30;1.60;99.90
8043;DHT22;4064;48.132;11.366;2024-01-27T00:08:56;1.50;99.90
8043;DHT22;4064;48.132;11.366;2024-01-27T00:11:21;1.60;99.90
8043;DHT22;4064;48.132;11.366;2024-01-27T00:13:49;1.60;99.90
8043;DHT22;4064;48.132;11.366;2024-01-27T00:16:15;1.50;99.90
8043;DHT22;4064;48.132;11.366;2024-01-27T00:18:41;1.40;99.90
8043;DHT22;4064;48.132;11.366;2024-01-27T00:21:07;1.20;99.90
8043;DHT22;4064;48.132;11.366;2024-01-27T00:23:33;1.10;99.90
8043;DHT22;4064;48.132;11.366;2024-01-27T00:26:02;1.10;99.90
8043;DHT22;4064;48.132;11.366;2024-01-27T00:28:28;1.10;99.90
8043;DHT22;4064;48.132;11.366;2024-01-27T00:30:54;1.20;99.90
8043;DHT22;4064;48.132;11.366;2024-01-27T00:33:19;1.10;99.90
8043;DHT22;4064;48.132;11.366;2024-01-27T00:35:45;1.10;99.90
8043;DHT22;4064;48.132;11.366;2024-01-27T00:38:11;1.10;99.90
8043;DHT22;4064;48.132;11.366;2024-01-27T00:40:36;1.10;99.90
8043;DHT22;4064;48.132;11.366;2024-01-27T00:43:03;1.10;99.90
8043;DHT22;4064;48.132;11.366;2024-01-27T00:45:29;1.00;99.90
8043;DHT22;4064;48.132;11.366;2024-01-27T00:47:56;1.00;99.90
8043;DHT22;4064;48.132;11.366;2024-01-27T00:50:22;0.90;99.90
8043;DHT22;4064;48.132;11.366;2024-01-27T00:52:48;0.90;99.90
8043;DHT22;4064;48.132;11.366;2024-01-27T00:55:14;1.00;99.90
8043;DHT22;4064;48.132;11.366;2024-01-27T00:57:39;1.00;99.90
8043;DHT22;4064;48.132;11.366;2024-01-27T01:00:09;1.00;99.90
8043;DHT22;4064;48.132;11.366;2024-01-27T01:02:36;1.00;99.90
8043;DHT22;4064;48.132;11.366;2024-01-27T01:05:02;1.10;99.90
8043;DHT22;4064;48.132;11.366;2024-01-27T01:07:31;1.10;99.90
8043;DHT22;4064;48.132;11.366;2024-01-27T01:09:57;1.10;99.90
8043;DHT22;4064;48.132;11.366;2024-01-27T01:12:23;1.20;99.90
8043;DHT22;4064;48.132;11.366;2024-01-27T01:14:51;1.10;99.90
8043;DHT22;4064;48.132;11.366;2024-01-27T01:17:16;1.20;99.90
8043;DHT22;4064;48.132;11.366;2024-01-27T01:19:42;1.30;99.90
8043;DHT22;4064;48.132;11.366;2024-01-27T01:22:08;1.40;99.90
8043;DHT22;4064;48.132;11.366;2024-01-27T01:24:34;1.40;99.90
8043;DHT22;4064;48.132;11.366;2024-01-27T01:27:00;1.40;99.90
8043;DHT22;4064;48.132;11.366;2024-01-27T01:29:25;1.40;99.90
8043;DHT22;4064;48.132;11.366;2024-01-27T01:31:51;1.40;99.90
8043;DHT22;4064;48.132;11.366;2024-01-27T01:34:17;1.40;99.90
8043;DHT22;4064;48.132;11.366;2024-01-27T01:36:43;1.40;99.90
8043;DHT22;4064;48.132;11.366;2024-01-27T01:39:10;1.30;99.90
8043;DHT22;4064;48.132;11.366;2024-01-27T01:41:36;1.30;99.90
8043;DHT22;4064;48.132;11.366;2024-01-27T01:44:01;1.40;99.90
8043;DHT22;4064;48.132;11.366;2024-01-27T01:46:27;1.30;99.90
8043;DHT22;4064;48.132;11.366;2024-01-27T01:48:53;1.40;99.90
8043;DHT22;4064;48.132;11.366;2024-01-27T01:51:19;1.40;99.90
8043;DHT22;4064;48.132;11.366;2024-01-27T01:53:48;1.40;99.90
8043;DHT22;4064;48.132;11.366;2024-01-27T01:56:15;1.40;99.90
8043;DHT22;4064;48.132;11.366;2024-01-27T01:58:41;1.30;99.90
8043;DHT22;4064;48.132;11.366;2024-01-27T02:01:07;1.30;99.90
8043;DHT22;4064;48.132;11.366;2024-01-27T02:03:32;1.30;99.90
8043;DHT22;4064;48.132;11.366;2024-01-27T02:05:58;1.40;99.90
8043;DHT22;4064;48.132;11.366;2024-01-27T02:08:24;1.30;99.90
8043;DHT22;4064;48.132;11.366;2024-01-27T02:10:50;1.30;99.90
8043;DHT22;4064;48.132;11.366;2024-01-27T02:13:20;1.20;99.90
8043;DHT22;4064;48.132;11.366;2024-01-27T02:15:47;1.20;99.90
8043;DHT22;4064;48.132;11.366;2024-01-27T02:18:13;1.20;99.90
8043;DHT22;4064;48.132;11.366;2024-01-27T02:20:39;1.20;99.90
8043;DHT22;4064;48.132;11.366;2024-01-27T02:23:05;1.10;99.90
8043;DHT22;4064;48.132;11.366;2024-01-27T02:25:32;1.20;99.90
8043;DHT22;4064;48.132;11.366;2024-01-27T02:27:58;1.20;99.90
8043;DHT22;4064;48.132;11.366;2024-01-27T02:30:24;1.20;99.90
8043;DHT22;4064;48.132;11.366;2024-01-27T02:32:50;1.10;99.90
8043;DHT22;4064;48.132;11.366;2024-01-27T02:35:16;1.30;99.90
8043;DHT22;4064;48.132;11.366;2024-01-27T02:37:42;1.40;99.90
8043;DHT22;4064;48.132;11.366;2024-01-27T02:40:08;1.20;99.90
8043;DHT22;4064;48.132;11.366;2024-01-27T02:42:37;1.20;99.90
8043;DHT22;4064;48.132;11.366;2024-01-27T02:45:04;1.30;99.90
8043;DHT22;4064;48.132;11.366;2024-01-27T02:47:30;1.20;99.90
8043;DHT22;4064;48.132;11.366;2024-01-27T02:49:55;1.30;99.90
8043;DHT22;4064;48.132;11.366;2024-01-27T02:52:21;1.30;99.90
8043;DHT22;4064;48.132;11.366;2024-01-27T02:54:47;1.20;99.90
8043;DHT22;4064;48.132;11.366;2024-01-27T02:59:53;1.20;99.90
8043;DHT22;4064;48.132;11.366;2024-01-27T03:02:18;1.20;99.90
8043;DHT22;4064;48.132;11.366;2024-01-27T03:04:44;1.30;99.90
8043;DHT22;4064;48.132;11.366;2024-01-27T03:07:10;1.30;99.90
8043;DHT22;4064;48.132;11.366;2024-01-27T03:09:35;1.30;99.90
8043;DHT22;4064;48.132;11.366;2024-01-27T03:12:02;1.30;99.90
8043;DHT22;4064;48.132;11.366;2024-01-27T03:14:27;1.20;99.90
8043;DHT22;4064;48.132;11.366;2024-01-27T03:16:54;1.20;99.90
8043;DHT22;4064;48.132;11.366;2024-01-27T03:19:20;1.10;99.90
8043;DHT22;4064;48.132;11.366;2024-01-27T03:21:48;1.10;99.90
8043;DHT22;4064;48.132;11.366;2024-01-27T03:24:14;1.20;99.90
8043;DHT22;4064;48.132;11.366;2024-01-27T03:26:40;1.20;99.90
8043;DHT22;4064;48.132;11.366;2024-01-27T03:29:05;1.10;99.90
8043;DHT22;4064;48.132;11.366;2024-01-27T03:31:34;1.10;99.90
8043;DHT22;4064;48.132;11.366;2024-01-27T03:34:01;1.20;99.90
8043;DHT22;4064;48.132;11.366;2024-01-27T03:36:27;1.10;99.90
8043;DHT22;4064;48.132;11.366;2024-01-27T03:38:54;1.10;99.90
8043;DHT22;4064;48.132;11.366;2024-01-27T03:41:20;1.10;99.90
8043;DHT22;4064;48.132;11.366;2024-01-27T03:43:46;1.20;99.90
8043;DHT22;4064;48.132;11.366;2024-01-27T03:46:11;1.20;99.90
8043;DHT22;4064;48.132;11.366;2024-01-27T03:48:37;1.20;99.90
8043;DHT22;4064;48.132;11.366;2024-01-27T03:51:03;1.20;99.90
8043;DHT22;4064;48.132;11.366;2024-01-27T03:53:29;1.30;99.90
8043;DHT22;4064;48.132;11.366;2024-01-27T03:55:55;1.30;99.90
8043;DHT22;4064;48.132;11.366;2024-01-27T03:58:24;1.30;99.90
8043;DHT22;4064;48.132;11.366;2024-01-27T04:00:49;1.30;99.90
8043;DHT22;4064;48.132;11.366;2024-01-27T04:03:15;1.30;99.90
8043;DHT22;4064;48.132;11.366;2024-01-27T04:05:41;1.20;99.90
8043;DHT22;4064;48.132;11.366;2024-01-27T04:08:06;1.20;99.90
8043;DHT22;4064;48.132;11.366;2024-01-27T04:10:32;1.10;99.90
8043;DHT22;4064;48.132;11.366;2024-01-27T04:12:58;1.00;99.90
8043;DHT22;4064;48.132;11.366;2024-01-27T04:15:24;1.00;99.90
8043;DHT22;4064;48.132;11.366;2024-01-27T04:17:49;0.90;99.90
8043;DHT22;4064;48.132;11.366;2024-01-27T04:20:15;0.80;99.90
8043;DHT22;4064;48.132;11.366;2024-01-27T04:22:41;0.90;99.90
8043;DHT22;4064;48.132;11.366;2024-01-27T04:25:07;0.90;99.90
8043;DHT22;4064;48.132;11.366;2024-01-27T04:27:39;0.80;99.90
8043;DHT22;4064;48.132;11.366;2024-01-27T04:30:08;0.90;99.90
8043;DHT22;4064;48.132;11.366;2024-01-27T04:32:35;0.90;99.90
8043;DHT22;4064;48.132;11.366;2024-01-27T04:35:01;0.90;99.90
8043;DHT22;4064;48.132;11.366;2024-01-27T04:37:27;1.00;99.90
8043;DHT22;4064;48.132;11.366;2024-01-27T04:39:53;0.90;99.90
8043;DHT22;4064;48.132;11.366;2024-01-27T04:42:19;0.90;99.90
8043;DHT22;4064;48.132;11.366;2024-01-27T04:44:46;1.00;99.90
8043;DHT22;4064;48.132;11.366;2024-01-27T04:47:11;0.90;99.90
8043;DHT22;4064;48.132;11.366;2024-01-27T04:49:37;1.00;99.90
8043;DHT22;4064;48.132;11.366;2024-01-27T04:52:03;1.00;99.90
8043;DHT22;4064;48.132;11.366;2024-01-27T04:54:29;0.90;99.90
8043;DHT22;4064;48.132;11.366;2024-01-27T04:56:54;0.90;99.90
8043;DHT22;4064;48.132;11.366;2024-01-27T04:59:20;0.80;99.90
8043;DHT22;4064;48.132;11.366;2024-01-27T05:01:46;0.80;99.90
8043;DHT22;4064;48.132;11.366;2024-01-27T05:04:12;0.70;99.90
8043;DHT22;4064;48.132;11.366;2024-01-27T05:06:38;0.70;99.90
8043;DHT22;4064;48.132;11.366;2024-01-27T05:09:07;0.70;99.90
8043;DHT22;4064;48.132;11.366;2024-01-27T05:11:33;0.70;99.90
8043;DHT22;4064;48.132;11.366;2024-01-27T05:13:59;0.60;99.90
8043;DHT22;4064;48.132;11.366;2024-01-27T05:16:26;0.50;99.90
8043;DHT22;4064;48.132;11.366;2024-01-27T05:18:52;0.70;99.90
8043;DHT22;4064;48.132;11.366;2024-01-27T05:21:19;0.70;99.90
8043;DHT22;4064;48.132;11.366;2024-01-27T05:23:45;0.60;99.90
8043;DHT22;4064;48.132;11.366;2024-01-27T05:26:10;0.60;99.90
8043;DHT22;4064;48.132;11.366;2024-01-27T05:28:39;0.60;99.90
8043;DHT22;4064;48.132;11.366;2024-01-27T05:31:08;0.50;99.90
8043;DHT22;4064;48.132;11.366;2024-01-27T05:33:38;0.50;99.90
8043;DHT22;4064;48.132;11.366;2024-01-27T05:36:05;0.50;99.90
8043;DHT22;4064;48.132;11.366;2024-01-27T05:38:31;0.60;99.90
8043;DHT22;4064;48.132;11.366;2024-01-27T05:41:00;0.60;99.90
8043;DHT22;4064;48.132;11.366;2024-01-27T05:43:26;0.50;99.90
8043;DHT22;4064;48.132;11.366;2024-01-27T05:45:52;0.50;99.90
8043;DHT22;4064;48.132;11.366;2024-01-27T05:48:18;0.40;99.90
8043;DHT22;4064;48.132;11.366;2024-01-27T05:50:54;0.30;99.90
8043;DHT22;4064;48.132;11.366;2024-01-27T05:53:19;0.20;99.90
8043;DHT22;4064;48.132;11.366;2024-01-27T05:55:46;0.10;99.90
8043;DHT22;4064;48.132;11.366;2024-01-27T05:58:12;0.20;99.90
8043;DHT22;4064;48.132;11.366;2024-01-27T06:00:38;0.10;99.90
8043;DHT22;4064;48.132;11.366;2024-01-27T06:03:03;0.20;99.90
8043;DHT22;4064;48.132;11.366;2024-01-27T06:05:29;0.10;99.90
8043;DHT22;4064;48.132;11.366;2024-01-27T06:07:55;0.10;99.90
8043;DHT22;4064;48.132;11.366;2024-01-27T06:10:20;-0.10;99.90
8043;DHT22;4064;48.132;11.366;2024-01-27T06:12:47;0.00;99.90
8043;DHT22;4064;48.132;11.366;2024-01-27T06:15:12;0.00;99.90
8043;DHT22;4064;48.132;11.366;2024-01-27T06:17:38;0.00;99.90
8043;DHT22;4064;48.132;11.366;2024-01-27T06:20:04;0.00;99.90
8043;DHT22;4064;48.132;11.366;2024-01-27T06:22:30;0.10;99.90
8043;DHT22;4064;48.132;11.366;2024-01-27T06:24:58;-0.10;99.90
8043;DHT22;4064;48.132;11.366;2024-01-27T06:27:24;0.00;99.90
8043;DHT22;4064;48.132;11.366;2024-01-27T06:29:49;-0.10;99.90
8043;DHT22;4064;48.132;11.366;2024-01-27T06:32:15;-0.20;99.90
8043;DHT22;4064;48.132;11.366;2024-01-27T06:34:41;0.00;99.90
8043;DHT22;4064;48.132;11.366;2024-01-27T06:37:07;-0.10;99.90
8043;DHT22;4064;48.132;11.366;2024-01-27T06:39:33;-0.20;99.90
8043;DHT22;4064;48.132;11.366;2024-01-27T06:41:58;-0.30;99.90
8043;DHT22;4064;48.132;11.366;2024-01-27T06:44:24;-0.20;99.90
8043;DHT22;4064;48.132;11.366;2024-01-27T06:46:50;-0.30;99.90
8043;DHT22;4064;48.132;11.366;2024-01-27T06:49:16;-0.40;99.90
8043;DHT22;4064;48.132;11.366;2024-01-27T06:51:43;-0.40;99.90
8043;DHT22;4064;48.132;11.366;2024-01-27T06:54:09;-0.40;99.90
8043;DHT22;4064;48.132;11.366;2024-01-27T06:56:35;-0.30;99.90
8043;DHT22;4064;48.132;11.366;2024-01-27T06:59:00;-0.30;99.90
8043;DHT22;4064;48.132;11.366;2024-01-27T07:01:26;-0.40;99.90
8043;DHT22;4064;48.132;11.366;2024-01-27T07:03:52;-0.40;99.90
8043;DHT22;4064;48.132;11.366;2024-01-27T07:06:17;-0.40;99.90
8043;DHT22;4064;48.132;11.366;2024-01-27T07:08:43;-0.30;99.90
8043;DHT22;4064;48.132;11.366;2024-01-27T07:11:09;-0.40;99.90
8043;DHT22;4064;48.132;11.366;2024-01-27T07:13:34;-0.30;99.90
8043;DHT22;4064;48.132;11.366;2024-01-27T07:16:00;-0.40;99.90
8043;DHT22;4064;48.132;11.366;2024-01-27T07:18:26;-0.30;99.90
8043;DHT22;4064;48.132;11.366;2024-01-27T07:20:51;-0.20;99.90
8043;DHT22;4064;48.132;11.366;2024-01-27T07:23:17;-0.20;99.90
8043;DHT22;4064;48.132;11.366;2024-01-27T07:25:43;-0.10;99.90
8043;DHT22;4064;48.132;11.366;2024-01-27T07:28:09;-0.10;99.90
8043;DHT22;4064;48.132;11.366;2024-01-27T07:30:35;-0.10;99.90
8043;DHT22;4064;48.132;11.366;2024-01-27T07:33:01;-0.10;99.90
8043;DHT22;4064;48.132;11.366;2024-01-27T07:35:27;-0.10;99.90
8043;DHT22;4064;48.132;11.366;2024-01-27T07:37:53;-0.10;99.90
8043;DHT22;4064;48.132;11.366;2024-01-27T07:40:19;-0.10;99.90
8043;DHT22;4064;48.132;11.366;2024-01-27T07:42:44;0.10;99.90
8043;DHT22;4064;48.132;11.366;2024-01-27T07:45:10;0.10;99.90
8043;DHT22;4064;48.132;11.366;2024-01-27T07:47:36;0.10;99.90
8043;DHT22;4064;48.132;11.366;2024-01-27T07:50:02;0.20;99.90
8043;DHT22;4064;48.132;11.366;2024-01-27T07:52:28;0.10;99.90
8043;DHT22;4064;48.132;11.366;2024-01-27T07:54:53;0.10;99.90
8043;DHT22;4064;48.132;11.366;2024-01-27T07:57:20;0.20;99.90
8043;DHT22;4064;48.132;11.366;2024-01-27T07:59:46;0.40;99.90
8043;DHT22;4064;48.132;11.366;2024-01-27T08:02:11;0.30;99.90
8043;DHT22;4064;48.132;11.366;2024-01-27T08:04:38;0.30;99.90
8043;DHT22;4064;48.132;11.366;2024-01-27T08:07:04;0.40;99.90
8043;DHT22;4064;48.132;11.366;2024-01-27T08:09:35;0.40;99.90
8043;DHT22;4064;48.132;11.366;2024-01-27T08:12:01;0.50;99.90
8043;DHT22;4064;48.132;11.366;2024-01-27T08:14:28;0.60;99.90
8043;DHT22;4064;48.132;11.366;2024-01-27T08:16:56;0.70;99.90
8043;DHT22;4064;48.132;11.366;2024-01-27T08:19:24;0.80;99.90
8043;DHT22;4064;48.132;11.366;2024-01-27T08:21:50;1.00;99.90
8043;DHT22;4064;48.132;11.366;2024-01-27T08:24:16;1.20;99.90
8043;DHT22;4064;48.132;11.366;2024-01-27T08:26:42;1.30;99.90
8043;DHT22;4064;48.132;11.366;2024-01-27T08:29:09;1.30;99.90
8043;DHT22;4064;48.132;11.366;2024-01-27T08:31:34;1.20;99.90
8043;DHT22;4064;48.132;11.366;2024-01-27T08:34:00;1.30;99.90
8043;DHT22;4064;48.132;11.366;2024-01-27T08:36:26;1.40;99.90
8043;DHT22;4064;48.132;11.366;2024-01-27T08:38:52;1.60;99.90
8043;DHT22;4064;48.132;11.366;2024-01-27T08:41:18;1.90;99.90
8043;DHT22;4064;48.132;11.366;2024-01-27T08:43:43;2.00;99.90
8043;DHT22;4064;48.132;11.366;2024-01-27T08:46:09;2.10;99.90
8043;DHT22;4064;48.132;11.366;2024-01-27T08:48:38;2.20;99.90
8043;DHT22;4064;48.132;11.366;2024-01-27T08:51:04;2.30;99.90
8043;DHT22;4064;48.132;11.366;2024-01-27T08:53:30;3.70;99.90
8043;DHT22;4064;48.132;11.366;2024-01-27T08:55:55;5.50;99.90
8043;DHT22;4064;48.132;11.366;2024-01-27T08:58:21;6.20;99.90
8043;DHT22;4064;48.132;11.366;2024-01-27T09:00:47;7.00;99.90
8043;DHT22;4064;48.132;11.366;2024-01-27T09:03:12;7.70;99.90
8043;DHT22;4064;48.132;11.366;2024-01-27T09:05:39;9.40;99.90
8043;DHT22;4064;48.132;11.366;2024-01-27T09:08:07;8.80;99.90
8043;DHT22;4064;48.132;11.366;2024-01-27T09:10:33;8.80;99.90
8043;DHT22;4064;48.132;11.366;2024-01-27T09:12:59;8.50;99.90
8043;DHT22;4064;48.132;11.366;2024-01-27T09:15:24;7.60;99.90
8043;DHT22;4064;48.132;11.366;2024-01-27T09:17:50;8.70;99.90
8043;DHT22;4064;48.132;11.366;2024-01-27T09:20:16;9.30;99.90
8043;DHT22;4064;48.132;11.366;2024-01-27T09:22:42;9.50;99.90
8043;DHT22;4064;48.132;11.366;2024-01-27T09:25:16;8.20;99.90
8043;DHT22;4064;48.132;11.366;2024-01-27T09:27:42;7.30;99.90
8043;DHT22;4064;48.132;11.366;2024-01-27T09:30:08;8.30;99.90
8043;DHT22;4064;48.132;11.366;2024-01-27T09:32:33;9.60;99.90
8043;DHT22;4064;48.132;11.366;2024-01-27T09:34:59;7.90;99.90
8043;DHT22;4064;48.132;11.366;2024-01-27T09:37:25;6.90;99.90
8043;DHT22;4064;48.132;11.366;2024-01-27T09:47:31;8.70;99.90
8043;DHT22;4064;48.132;11.366;2024-01-27T09:49:57;8.80;99.90
8043;DHT22;4064;48.132;11.366;2024-01-27T09:52:24;9.10;99.90
8043;DHT22;4064;48.132;11.366;2024-01-27T09:54:49;8.00;99.90
8043;DHT22;4064;48.132;11.366;2024-01-27T09:57:15;7.30;99.90
8043;DHT22;4064;48.132;11.366;2024-01-27T09:59:41;7.00;99.90
8043;DHT22;4064;48.132;11.366;2024-01-27T10:02:11;6.50;99.90
8043;DHT22;4064;48.132;11.366;2024-01-27T10:04:41;6.20;99.90
8043;DHT22;4064;48.132;11.366;2024-01-27T10:07:07;7.10;99.90
8043;DHT22;4064;48.132;11.366;2024-01-27T10:09:33;7.50;99.90
8043;DHT22;4064;48.132;11.366;2024-01-27T10:12:01;8.20;99.90
8043;DHT22;4064;48.132;11.366;2024-01-27T10:14:38;8.20;99.90
8043;DHT22;4064;48.132;11.366;2024-01-27T10:17:04;8.70;99.90
8043;DHT22;4064;48.132;11.366;2024-01-27T10:19:30;8.50;99.90
8043;DHT22;4064;48.132;11.366;2024-01-27T10:22:02;8.50;99.90
8043;DHT22;4064;48.132;11.366;2024-01-27T10:24:28;8.70;99.90
8043;DHT22;4064;48.132;11.366;2024-01-27T10:27:04;8.50;99.90
8043;DHT22;4064;48.132;11.366;2024-01-27T10:29:30;8.60;99.90
8043;DHT22;4064;48.132;11.366;2024-01-27T10:32:09;9.10;99.90
8043;DHT22;4064;48.132;11.366;2024-01-27T10:34:35;8.70;99.90
8043;DHT22;4064;48.132;11.366;2024-01-27T10:37:01;8.70;99.90
8043;DHT22;4064;48.132;11.366;2024-01-27T10:39:27;8.40;99.90
8043;DHT22;4064;48.132;11.366;2024-01-27T10:41:53;8.10;99.90
8043;DHT22;4064;48.132;11.366;2024-01-27T10:44:23;8.30;99.90
8043;DHT22;4064;48.132;11.366;2024-01-27T10:46:51;8.10;99.90
8043;DHT22;4064;48.132;11.366;2024-01-27T10:49:18;7.60;99.90
8043;DHT22;4064;48.132;11.366;2024-01-27T10:51:46;7.10;99.90
8043;DHT22;4064;48.132;11.366;2024-01-27T10:54:18;7.20;99.90
8043;DHT22;4064;48.132;11.366;2024-01-27T10:56:46;6.90;99.90
8043;DHT22;4064;48.132;11.366;2024-01-27T10:59:13;7.20;99.90
8043;DHT22;4064;48.132;11.366;2024-01-27T11:01:41;7.10;99.90
8043;DHT22;4064;48.132;11.366;2024-01-27T11:04:13;7.20;99.90
8043;DHT22;4064;48.132;11.366;2024-01-27T11:06:42;7.20;99.90
8043;DHT22;4064;48.132;11.366;2024-01-27T11:09:09;7.20;99.90
8043;DHT22;4064;48.132;11.366;2024-01-27T11:11:38;7.30;99.90
8043;DHT22;4064;48.132;11.366;2024-01-27T11:14:04;7.30;99.90
8043;DHT22;4064;48.132;11.366;2024-01-27T11:16:29;7.40;99.90
8043;DHT22;4064;48.132;11.366;2024-01-27T11:18:55;7.40;99.90
8043;DHT22;4064;48.132;11.366;2024-01-27T11:21:21;7.30;99.90
8043;DHT22;4064;48.132;11.366;2024-01-27T11:23:47;7.50;99.90
8043;DHT22;4064;48.132;11.366;2024-01-27T11:26:21;7.60;99.90
8043;DHT22;4064;48.132;11.366;2024-01-27T11:28:50;7.50;99.90
8043;DHT22;4064;48.132;11.366;2024-01-27T11:31:17;7.50;99.90
8043;DHT22;4064;48.132;11.366;2024-01-27T11:33:47;7.30;99.90
8043;DHT22;4064;48.132;11.366;2024-01-27T11:36:23;7.60;99.90
8043;DHT22;4064;48.132;11.366;2024-01-27T11:38:51;7.60;99.90
8043;DHT22;4064;48.132;11.366;2024-01-27T11:41:27;7.80;99.90
8043;DHT22;4064;48.132;11.366;2024-01-27T11:43:57;7.80;99.90
8043;DHT22;4064;48.132;11.366;2024-01-27T11:46:23;7.80;99.90
8043;DHT22;4064;48.132;11.366;2024-01-27T11:48:49;7.80;99.90
8043;DHT22;4064;48.132;11.366;2024-01-27T11:51:15;7.80;99.90
8043;DHT22;4064;48.132;11.366;2024-01-27T11:53:41;8.00;99.90
8043;DHT22;4064;48.132;11.366;2024-01-27T11:56:07;8.10;99.90
8043;DHT22;4064;48.132;11.366;2024-01-27T11:58:33;8.10;99.90
8043;DHT22;4064;48.132;11.366;2024-01-27T12:00:59;8.20;99.90
8043;DHT22;4064;48.132;11.366;2024-01-27T12:03:26;8.00;99.90
8043;DHT22;4064;48.132;11.366;2024-01-27T12:05:52;8.30;99.90
8043;DHT22;4064;48.132;11.366;2024-01-27T12:08:18;8.40;99.90
8043;DHT22;4064;48.132;11.366;2024-01-27T12:10:44;8.30;99.90
8043;DHT22;4064;48.132;11.366;2024-01-27T12:13:10;8.60;99.90
8043;DHT22;4064;48.132;11.366;2024-01-27T12:15:36;8.80;99.90
8043;DHT22;4064;48.132;11.366;2024-01-27T12:18:03;8.30;99.90
8043;DHT22;4064;48.132;11.366;2024-01-27T12:20:29;8.50;99.90
8043;DHT22;4064;48.132;11.366;2024-01-27T12:23:05;8.70;99.90
8043;DHT22;4064;48.132;11.366;2024-01-27T12:25:31;8.90;99.90
8043;DHT22;4064;48.132;11.366;2024-01-27T12:27:57;8.70;99.90
8043;DHT22;4064;48.132;11.366;2024-01-27T12:30:27;9.00;99.90
8043;DHT22;4064;48.132;11.366;2024-01-27T12:32:53;9.10;99.90
8043;DHT22;4064;48.132;11.366;2024-01-27T12:35:18;9.30;99.90
8043;DHT22;4064;48.132;11.366;2024-01-27T12:37:44;9.40;99.90
8043;DHT22;4064;48.132;11.366;2024-01-27T12:40:20;9.20;99.90
8043;DHT22;4064;48.132;11.366;2024-01-27T12:42:46;9.70;99.90
8043;DHT22;4064;48.132;11.366;2024-01-27T12:45:12;9.50;99.90
8043;DHT22;4064;48.132;11.366;2024-01-27T12:47:38;9.80;99.90
8043;DHT22;4064;48.132;11.366;2024-01-27T12:50:05;10.00;99.90
8043;DHT22;4064;48.132;11.366;2024-01-27T12:52:32;10.10;99.90
8043;DHT22;4064;48.132;11.366;2024-01-27T12:54:57;9.80;99.90
8043;DHT22;4064;48.132;11.366;2024-01-27T12:57:23;9.20;99.90
8043;DHT22;4064;48.132;11.366;2024-01-27T12:59:49;9.70;99.90
8043;DHT22;4064;48.132;11.366;2024-01-27T13:02:14;10.20;99.90
8043;DHT22;4064;48.132;11.366;2024-01-27T13:04:41;9.80;99.90
8043;DHT22;4064;48.132;11.366;2024-01-27T13:07:07;10.30;99.90
8043;DHT22;4064;48.132;11.366;2024-01-27T13:09:33;10.50;99.90
8043;DHT22;4064;48.132;11.366;2024-01-27T13:11:59;10.80;99.30
8043;DHT22;4064;48.132;11.366;2024-01-27T13:14:25;10.30;99.10
8043;DHT22;4064;48.132;11.366;2024-01-27T13:16:50;9.70;99.20
8043;DHT22;4064;48.132;11.366;2024-01-27T13:19:19;9.20;99.90
8043;DHT22;4064;48.132;11.366;2024-01-27T13:21:44;9.20;99.90
8043;DHT22;4064;48.132;11.366;2024-01-27T13:24:10;9.70;99.90
8043;DHT22;4064;48.132;11.366;2024-01-27T13:26:36;10.00;99.90
8043;DHT22;4064;48.132;11.366;2024-01-27T13:29:05;10.00;99.30
8043;DHT22;4064;48.132;11.366;2024-01-27T13:31:31;9.80;99.60
8043;DHT22;4064;48.132;11.366;2024-01-27T13:33:57;9.60;99.90
8043;DHT22;4064;48.132;11.366;2024-01-27T13:36:25;8.50;99.90
8043;DHT22;4064;48.132;11.366;2024-01-27T13:38:50;8.40;99.90
8043;DHT22;4064;48.132;11.366;2024-01-27T13:41:20;8.30;99.90
8043;DHT22;4064;48.132;11.366;2024-01-27T13:43:46;8.40;99.90
8043;DHT22;4064;48.132;11.366;2024-01-27T13:46:11;8.20;99.90
8043;DHT22;4064;48.132;11.366;2024-01-27T13:48:37;8.00;99.90
8043;DHT22;4064;48.132;11.366;2024-01-27T13:51:03;7.70;99.90
8043;DHT22;4064;48.132;11.366;2024-01-27T13:53:29;7.60;99.90
8043;DHT22;4064;48.132;11.366;2024-01-27T13:55:55;7.70;99.90
8043;DHT22;4064;48.132;11.366;2024-01-27T13:58:21;7.60;99.90
8043;DHT22;4064;48.132;11.366;2024-01-27T14:00:47;7.40;99.90
8043;DHT22;4064;48.132;11.366;2024-01-27T14:03:13;7.30;99.90
8043;DHT22;4064;48.132;11.366;2024-01-27T14:05:39;7.20;99.90
8043;DHT22;4064;48.132;11.366;2024-01-27T14:08:06;7.10;99.90
8043;DHT22;4064;48.132;11.366;2024-01-27T14:10:34;7.00;99.90
8043;DHT22;4064;48.132;11.366;2024-01-27T14:13:00;6.90;99.90
8043;DHT22;4064;48.132;11.366;2024-01-27T14:15:30;6.80;99.90
8043;DHT22;4064;48.132;11.366;2024-01-27T14:17:55;6.70;99.90
8043;DHT22;4064;48.132;11.366;2024-01-27T14:20:21;6.50;99.90
8043;DHT22;4064;48.132;11.366;2024-01-27T14:22:47;6.50;99.90
8043;DHT22;4064;48.132;11.366;2024-01-27T14:25:12;6.40;99.90
8043;DHT22;4064;48.132;11.366;2024-01-27T14:27:38;6.40;99.90
8043;DHT22;4064;48.132;11.366;2024-01-27T14:30:04;6.30;99.90
8043;DHT22;4064;48.132;11.366;2024-01-27T14:32:30;6.30;99.90
8043;DHT22;4064;48.132;11.366;2024-01-27T14:34:56;6.20;99.90
8043;DHT22;4064;48.132;11.366;2024-01-27T14:37:22;6.10;99.90
8043;DHT22;4064;48.132;11.366;2024-01-27T14:39:48;6.10;99.90
8043;DHT22;4064;48.132;11.366;2024-01-27T14:42:14;6.10;99.90
8043;DHT22;4064;48.132;11.366;2024-01-27T14:44:42;6.00;99.90
8043;DHT22;4064;48.132;11.366;2024-01-27T14:47:09;5.90;99.90
8043;DHT22;4064;48.132;11.366;2024-01-27T14:49:35;5.80;99.90
8043;DHT22;4064;48.132;11.366;2024-01-27T14:52:06;5.70;99.90
8043;DHT22;4064;48.132;11.366;2024-01-27T14:54:34;5.70;99.90
8043;DHT22;4064;48.132;11.366;2024-01-27T14:57:02;5.60;99.90
8043;DHT22;4064;48.132;11.366;2024-01-27T14:59:29;5.60;99.90
8043;DHT22;4064;48.132;11.366;2024-01-27T15:01:55;5.50;99.90
8043;DHT22;4064;48.132;11.366;2024-01-27T15:04:23;5.30;99.90
8043;DHT22;4064;48.132;11.366;2024-01-27T15:06:53;5.40;99.90
8043;DHT22;4064;48.132;11.366;2024-01-27T15:09:19;5.30;99.90
8043;DHT22;4064;48.132;11.366;2024-01-27T15:11:45;5.10;99.90
8043;DHT22;4064;48.132;11.366;2024-01-27T15:14:11;5.00;99.90
8043;DHT22;4064;48.132;11.366;2024-01-27T15:16:37;5.00;99.90
8043;DHT22;4064;48.132;11.366;2024-01-27T15:19:03;5.00;99.90
8043;DHT22;4064;48.132;11.366;2024-01-27T15:21:29;4.90;99.90
8043;DHT22;4064;48.132;11.366;2024-01-27T15:23:57;4.80;99.90
8043;DHT22;4064;48.132;11.366;2024-01-27T15:26:23;4.80;99.90
8043;DHT22;4064;48.132;11.366;2024-01-27T15:28:49;4.70;99.90
8043;DHT22;4064;48.132;11.366;2024-01-27T15:31:15;4.60;99.90
8043;DHT22;4064;48.132;11.366;2024-01-27T15:33:41;4.60;99.90
8043;DHT22;4064;48.132;11.366;2024-01-27T15:36:08;4.50;99.90
8043;DHT22;4064;48.132;11.366;2024-01-27T15:38:34;4.40;99.90
8043;DHT22;4064;48.132;11.366;2024-01-27T15:41:00;4.30;99.90
8043;DHT22;4064;48.132;11.366;2024-01-27T15:43:31;4.30;99.90
8043;DHT22;4064;48.132;11.366;2024-01-27T15:45:57;4.20;99.90
8043;DHT22;4064;48.132;11.366;2024-01-27T15:48:22;4.20;99.90
8043;DHT22;4064;48.132;11.366;2024-01-27T15:50:48;4.00;99.90
8043;DHT22;4064;48.132;11.366;2024-01-27T15:53:14;3.90;99.90
8043;DHT22;4064;48.132;11.366;2024-01-27T15:55:40;3.80;99.90
8043;DHT22;4064;48.132;11.366;2024-01-27T15:58:06;3.70;99.90
8043;DHT22;4064;48.132;11.366;2024-01-27T16:00:32;3.70;99.90
8043;DHT22;4064;48.132;11.366;2024-01-27T16:02:58;3.70;99.90
8043;DHT22;4064;48.132;11.366;2024-01-27T16:05:23;3.60;99.90